Time;durP1;ratioP1;P1;durP2;ratioP2;P2;SDS_P1;SDS_P2;PMS_P1;PMS_P2;Temp;Humidity;BMP_temperature;BMP_pressure;BME280_temperature;BME280_humidity;BME280_pressure;Samples;Min_cycle;Max_cycle;Signal;HPM_P1;HPM_P2
2022/10/22 00:00:14;;;;;;;13.68;8.70;;;;;;;12.07;70.48;99943.03;5033590;28;98084;-84
2022/10/22 00:02:40;;;;;;;12.50;8.45;;;;;;;12.08;70.81;99938.63;5032397;28;101220;-83
2022/10/22 00:05:06;;;;;;;14.15;9.07;;;;;;;11.98;71.02;99928.53;5016350;28;97106;-83
2022/10/22 00:07:31;;;;;;;12.50;8.93;;;;;;;11.91;70.98;99937.59;4996533;28;97298;-83
2022/10/22 00:09:57;;;;;;;12.60;8.70;;;;;;;11.97;70.93;99939.94;5010095;28;101163;-84
2022/10/22 00:12:23;;;;;;;11.18;8.45;;;;;;;11.99;70.75;99942.53;5016509;28;97921;-84
2022/10/22 00:14:49;;;;;;;11.23;8.50;;;;;;;11.96;70.82;99951.41;5032760;28;96689;-84
2022/10/22 00:17:15;;;;;;;11.70;8.13;;;;;;;12.01;70.87;99948.53;5000320;28;97237;-84
2022/10/22 00:19:40;;;;;;;11.43;9.32;;;;;;;11.95;71.02;99946.19;5049759;27;99167;-85
2022/10/22 00:22:08;;;;;;;12.07;9.38;;;;;;;12.01;70.25;99935.41;5033322;28;97574;-84
2022/10/22 00:24:35;;;;;;;14.63;8.93;;;;;;;11.91;69.90;99950.75;5030017;27;97270;-84
2022/10/22 00:27:02;;;;;;;14.93;9.32;;;;;;;11.86;71.02;99930.84;5015382;28;97009;-84
2022/10/22 00:29:27;;;;;;;14.20;9.52;;;;;;;11.91;70.43;99932.34;4999299;28;100139;-84
2022/10/22 00:31:53;;;;;;;13.15;8.60;;;;;;;11.88;71.17;99935.13;5015607;28;100016;-84
2022/10/22 00:34:21;;;;;;;14.13;10.80;;;;;;;11.91;70.93;99931.50;5016197;28;96640;-84
2022/10/22 00:36:50;;;;;;;12.90;9.30;;;;;;;11.90;71.37;99919.28;5016168;28;96848;-84
2022/10/22 00:39:17;;;;;;;12.93;8.70;;;;;;;11.94;71.44;99915.56;5015888;28;99414;-85
2022/10/22 00:41:45;;;;;;;12.10;9.20;;;;;;;11.83;71.09;99887.09;5010570;28;100586;-84
2022/10/22 00:44:48;;;;;;;13.15;9.00;;;;;;;11.97;70.98;99915.44;4995223;28;97263;-84
2022/10/22 00:47:15;;;;;;;14.05;9.45;;;;;;;11.90;71.00;99904.34;5046866;27;97183;-84
2022/10/22 00:49:41;;;;;;;13.75;9.43;;;;;;;11.98;71.14;99903.97;5031749;28;100486;-84
2022/10/22 00:52:07;;;;;;;11.02;8.32;;;;;;;11.89;71.33;99901.78;5016352;28;98008;-83
2022/10/22 00:54:33;;;;;;;13.20;9.20;;;;;;;11.87;71.41;99906.25;5032798;28;97309;-84
2022/10/22 00:56:59;;;;;;;13.15;9.07;;;;;;;11.91;71.19;99886.78;5050352;27;97331;-84
2022/10/22 00:59:26;;;;;;;16.63;9.73;;;;;;;11.87;71.54;99866.78;5029720;28;101017;-84
2022/10/22 01:01:52;;;;;;;14.48;9.30;;;;;;;11.93;70.59;99863.91;5013220;28;100671;-84
2022/10/22 01:04:19;;;;;;;14.38;9.32;;;;;;;11.91;70.14;99873.63;5031611;28;96744;-85
2022/10/22 01:06:46;;;;;;;13.85;9.68;;;;;;;11.87;70.01;99869.41;5015269;28;96881;-84
2022/10/22 01:09:16;;;;;;;13.70;9.18;;;;;;;11.71;69.55;99851.69;5031711;28;98245;-84
2022/10/22 01:12:00;;;;;;;14.05;9.27;;;;;;;11.65;70.18;99877.44;5015028;28;101444;-84
2022/10/22 01:14:39;;;;;;;16.52;9.07;;;;;;;11.64;70.61;99878.38;5032149;27;96680;-84
2022/10/22 01:17:14;;;;;;;14.27;9.00;;;;;;;11.64;70.28;99888.88;5029731;28;96862;-84
2022/10/22 01:19:53;;;;;;;14.65;8.70;;;;;;;11.53;70.32;99874.44;5031359;28;97470;-85
2022/10/22 01:22:40;;;;;;;12.40;9.05;;;;;;;11.50;70.02;99906.09;5049533;27;98443;-85
2022/10/22 01:25:34;;;;;;;11.02;8.38;;;;;;;11.52;70.57;99911.31;5015787;28;96671;-84
2022/10/22 01:28:11;;;;;;;12.55;8.15;;;;;;;11.46;69.96;99922.06;5037628;27;98058;-84
2022/10/22 01:30:37;;;;;;;12.13;8.65;;;;;;;11.61;69.21;99916.16;5015771;28;100048;-84
2022/10/22 01:33:05;;;;;;;11.73;8.20;;;;;;;11.54;69.63;99905.03;5027253;27;101506;-84
2022/10/22 01:35:35;;;;;;;11.43;8.63;;;;;;;11.57;70.15;99898.78;5015585;28;97126;-84
2022/10/22 01:38:05;;;;;;;11.32;7.65;;;;;;;11.56;69.88;99892.69;5031921;27;97177;-84
2022/10/22 01:40:32;;;;;;;10.73;7.82;;;;;;;11.67;70.19;99888.75;5018976;28;97340;-84
2022/10/22 01:42:58;;;;;;;11.00;7.03;;;;;;;11.73;70.00;99873.53;5010622;28;101014;-84
2022/10/22 01:45:24;;;;;;;14.18;9.07;;;;;;;11.74;70.09;99869.13;5032356;28;96652;-84
2022/10/22 01:47:50;;;;;;;14.15;8.25;;;;;;;11.76;70.74;99865.50;5027242;28;96897;-84
2022/10/22 01:50:18;;;;;;;11.07;7.85;;;;;;;11.75;70.49;99879.56;5026653;27;101295;-84
2022/10/22 01:53:10;;;;;;;12.23;9.02;;;;;;;11.81;70.78;99880.19;5047130;27;100462;-85
2022/10/22 01:56:00;;;;;;;10.30;7.50;;;;;;;11.78;71.02;99881.22;5031429;28;96942;-84
2022/10/22 01:58:37;;;;;;;12.98;8.25;;;;;;;11.82;71.00;99879.28;5033390;28;96883;-84
2022/10/22 02:01:25;;;;;;;11.60;8.05;;;;;;;11.82;71.00;99881.91;5017677;28;101368;-84
2022/10/22 02:03:57;;;;;;;10.15;8.05;;;;;;;11.60;70.23;99851.34;5031585;28;97739;-84
2022/10/22 02:06:24;;;;;;;13.20;8.27;;;;;;;11.81;70.37;99882.81;5032287;28;96672;-84
2022/10/22 02:08:51;;;;;;;15.88;8.65;;;;;;;11.61;70.50;99849.59;5013813;28;97129;-84
2022/10/22 02:11:17;;;;;;;14.40;8.40;;;;;;;11.76;70.81;99873.38;5048218;27;98608;-85
2022/10/22 02:13:47;;;;;;;12.20;7.75;;;;;;;11.69;70.63;99852.69;5030778;27;101226;-84
2022/10/22 02:16:17;;;;;;;11.00;7.63;;;;;;;11.77;70.13;99861.94;5031829;27;96893;-84
2022/10/22 02:18:44;;;;;;;10.48;7.20;;;;;;;11.70;69.98;99842.13;5030729;28;96933;-85
2022/10/22 02:21:10;;;;;;;15.73;7.50;;;;;;;11.62;69.80;99838.13;5007801;28;101755;-84
2022/10/22 02:23:35;;;;;;;10.95;7.88;;;;;;;11.72;70.22;99855.19;5021796;28;98714;-84
2022/10/22 02:26:08;;;;;;;12.65;7.55;;;;;;;11.74;70.15;99864.69;5012268;28;96733;-84
2022/10/22 02:28:38;;;;;;;12.50;7.70;;;;;;;11.65;69.64;99865.13;4997723;28;96739;-83
2022/10/22 02:31:14;;;;;;;11.77;7.90;;;;;;;11.64;69.28;99857.34;5047203;27;100647;-84
2022/10/22 02:33:49;;;;;;;14.57;8.70;;;;;;;11.52;70.09;99872.72;5016926;28;101462;-84
2022/10/22 02:36:15;;;;;;;16.35;8.32;;;;;;;11.45;69.75;99863.41;5031285;28;97114;-84
2022/10/22 02:38:41;;;;;;;12.40;7.82;;;;;;;11.41;70.15;99869.72;5031485;28;97161;-84
2022/10/22 02:41:07;;;;;;;10.52;8.32;;;;;;;11.27;70.48;99880.84;5031320;28;97842;-84
2022/10/22 02:43:41;;;;;;;11.05;8.10;;;;;;;11.18;70.94;99875.13;5031020;27;101011;-84
2022/10/22 02:46:08;;;;;;;14.05;7.93;;;;;;;11.06;70.89;99882.63;5029720;28;96922;-84
2022/10/22 02:48:33;;;;;;;14.88;7.28;;;;;;;11.07;71.29;99886.94;5013727;28;97232;-83
2022/10/22 02:50:59;;;;;;;13.13;8.23;;;;;;;11.06;70.52;99863.41;5013396;28;101854;-84
2022/10/22 02:53:24;;;;;;;13.25;8.15;;;;;;;11.13;71.33;99863.97;5035134;27;102015;-84
2022/10/22 02:55:50;;;;;;;13.48;8.27;;;;;;;11.19;70.89;99861.06;5031336;28;96643;-84
2022/10/22 02:58:15;;;;;;;11.57;8.10;;;;;;;11.18;70.94;99851.50;5044749;27;98076;-84
2022/10/22 03:00:41;;;;;;;12.52;7.97;;;;;;;11.27;71.01;99854.56;5005956;28;99910;-84
2022/10/22 03:03:07;;;;;;;14.68;7.40;;;;;;;11.21;71.09;99846.97;5046503;27;98360;-85
2022/10/22 03:05:32;;;;;;;9.85;7.78;;;;;;;11.35;71.35;99872.63;5047565;27;97098;-84
2022/10/22 03:07:58;;;;;;;9.95;7.13;;;;;;;11.40;70.85;99865.38;5046798;27;97013;-85
2022/10/22 03:10:23;;;;;;;8.65;6.80;;;;;;;11.39;71.22;99863.69;5016510;28;101871;-84
2022/10/22 03:12:49;;;;;;;11.95;7.60;;;;;;;11.47;71.40;99868.59;5013038;28;100241;-84
2022/10/22 03:15:14;;;;;;;10.32;7.88;;;;;;;11.50;71.03;99882.44;5030906;27;96903;-85
2022/10/22 03:17:40;;;;;;;13.48;8.25;;;;;;;11.36;70.34;99876.94;5027759;28;98213;-84
2022/10/22 03:20:06;;;;;;;12.10;7.32;;;;;;;11.33;70.89;99877.94;5029632;28;97416;-84
2022/10/22 03:22:33;;;;;;;17.67;8.85;;;;;;;11.30;70.45;99874.59;5015922;28;101813;-84
2022/10/22 03:25:03;;;;;;;12.93;7.97;;;;;;;11.25;71.26;99871.31;5013176;28;97230;-84
2022/10/22 03:27:29;;;;;;;11.77;8.32;;;;;;;11.35;71.08;99875.25;5012471;28;96759;-84
2022/10/22 03:29:55;;;;;;;11.15;8.15;;;;;;;11.39;70.73;99870.72;5010376;28;101572;-84
2022/10/22 03:32:21;;;;;;;13.07;8.30;;;;;;;11.33;71.19;99877.09;5016752;27;101538;-84
2022/10/22 03:34:46;;;;;;;10.15;7.47;;;;;;;11.26;71.00;99862.53;5048486;27;96943;-84
2022/10/22 03:37:12;;;;;;;12.55;8.32;;;;;;;11.25;71.36;99872.16;5051002;27;97036;-84
2022/10/22 03:39:38;;;;;;;12.68;7.28;;;;;;;11.17;71.13;99861.16;5034093;28;101468;-84
2022/10/22 03:42:04;;;;;;;12.18;7.38;;;;;;;11.05;71.28;99836.28;5033407;28;101096;-84
2022/10/22 03:44:30;;;;;;;13.85;7.80;;;;;;;11.27;70.85;99861.59;5004444;28;97171;-84
2022/10/22 03:46:56;;;;;;;12.18;7.55;;;;;;;11.25;70.69;99852.91;5046508;27;97125;-84
2022/10/22 03:49:22;;;;;;;10.93;7.82;;;;;;;11.35;70.76;99867.38;5050669;27;97890;-84
2022/10/22 03:51:47;;;;;;;11.68;7.82;;;;;;;11.27;70.89;99869.47;5049424;27;101296;-84
2022/10/22 03:54:14;;;;;;;13.50;8.73;;;;;;;11.25;70.87;99868.69;5050114;27;97059;-84
2022/10/22 03:56:40;;;;;;;12.82;8.02;;;;;;;11.32;71.19;99872.78;5033206;28;96919;-84
2022/10/22 03:59:05;;;;;;;11.32;7.95;;;;;;;11.16;71.31;99871.72;5061235;27;102031;-84
2022/10/22 04:01:31;;;;;;;13.70;7.70;;;;;;;11.11;71.40;99874.53;5003981;28;101036;-85
2022/10/22 04:03:57;;;;;;;12.80;8.10;;;;;;;11.21;71.25;99888.16;5033232;27;96946;-84
2022/10/22 04:06:23;;;;;;;10.48;7.93;;;;;;;11.28;71.55;99874.66;5033742;28;96750;-84
2022/10/22 04:08:49;;;;;;;15.95;8.02;;;;;;;11.28;71.53;99872.03;5030264;27;100882;-84
2022/10/22 04:11:15;;;;;;;12.07;8.30;;;;;;;11.35;71.24;99883.13;5032646;28;101412;-84
2022/10/22 04:13:41;;;;;;;15.25;8.55;;;;;;;11.34;71.54;99870.91;5013761;28;97071;-85
2022/10/22 04:16:14;;;;;;;14.98;8.90;;;;;;;11.49;71.15;99869.34;4999419;28;98166;-84
2022/10/22 04:18:40;;;;;;;10.27;8.30;;;;;;;11.51;71.02;99864.91;5029944;28;97464;-84
2022/10/22 04:21:06;;;;;;;17.90;8.88;;;;;;;11.55;70.86;99862.06;5028648;28;101599;-85
2022/10/22 04:23:32;;;;;;;11.27;8.38;;;;;;;11.45;70.91;99844.16;5046580;27;96843;-84
2022/10/22 04:25:58;;;;;;;12.63;8.48;;;;;;;11.30;71.25;99825.53;5045867;27;97431;-84
2022/10/22 04:28:24;;;;;;;13.73;8.13;;;;;;;11.44;71.04;99845.94;5015965;28;101655;-84
2022/10/22 04:30:49;;;;;;;15.63;8.70;;;;;;;11.44;71.44;99847.72;5032558;28;97430;-84
2022/10/22 04:33:15;;;;;;;18.40;8.60;;;;;;;11.45;71.04;99852.88;5017212;28;97141;-84
2022/10/22 04:35:41;;;;;;;12.20;8.07;;;;;;;11.39;71.74;99847.06;5016062;27;97152;-84
2022/10/22 04:38:06;;;;;;;11.35;8.38;;;;;;;11.26;72.08;99849.41;5011773;28;100577;-84
2022/10/22 04:40:32;;;;;;;11.35;7.68;;;;;;;11.44;71.83;99866.13;4999850;28;101825;-84
2022/10/22 04:42:57;;;;;;;12.40;7.35;;;;;;;11.29;72.21;99855.34;4989704;28;97169;-84
2022/10/22 04:45:23;;;;;;;16.15;8.20;;;;;;;11.39;72.13;99860.19;5047709;27;97025;-85
2022/10/22 04:47:48;;;;;;;10.68;7.30;;;;;;;11.33;72.11;99859.53;5047778;27;101139;-85
2022/10/22 04:50:14;;;;;;;11.90;8.35;;;;;;;11.34;72.17;99860.38;5014996;28;101940;-84
2022/10/22 04:52:40;;;;;;;16.27;9.02;;;;;;;11.48;71.96;99889.53;5032604;27;97256;-85
2022/10/22 04:55:06;;;;;;;17.67;8.05;;;;;;;11.54;71.97;99901.56;5032731;28;96955;-84
2022/10/22 04:57:31;;;;;;;11.57;7.90;;;;;;;11.53;72.38;99895.44;5015994;28;101064;-85
2022/10/22 04:59:57;;;;;;;10.15;8.13;;;;;;;11.59;72.00;99890.84;5027988;28;101123;-84
2022/10/22 05:02:23;;;;;;;11.35;8.18;;;;;;;11.55;72.09;99877.84;5031250;28;97122;-84
2022/10/22 05:04:48;;;;;;;12.05;8.18;;;;;;;11.61;72.10;99876.72;5066822;27;97128;-84
2022/10/22 05:07:14;;;;;;;10.80;8.20;;;;;;;11.52;72.47;99848.22;5048682;27;97986;-84
2022/10/22 05:09:40;;;;;;;12.57;8.38;;;;;;;11.59;72.14;99865.41;5015862;28;101360;-85
2022/10/22 05:12:05;;;;;;;14.35;8.57;;;;;;;11.72;71.93;99871.84;5048956;27;97276;-84
2022/10/22 05:14:31;;;;;;;12.10;8.27;;;;;;;11.62;72.14;99865.28;4999025;28;96998;-84
2022/10/22 05:16:57;;;;;;;13.15;8.18;;;;;;;11.68;71.88;99872.03;5048631;27;97706;-84
2022/10/22 05:19:25;;;;;;;12.57;8.30;;;;;;;11.69;72.52;99895.63;5006331;28;97359;-84
2022/10/22 05:21:53;;;;;;;11.88;8.73;;;;;;;11.53;72.10;99877.06;5031359;28;97429;-84
2022/10/22 05:24:19;;;;;;;12.25;8.10;;;;;;;11.64;72.54;99897.63;5015553;28;96878;-84
2022/10/22 05:26:45;;;;;;;12.18;7.88;;;;;;;11.59;72.12;99875.09;5031672;28;100646;-84
2022/10/22 05:29:10;;;;;;;12.60;8.35;;;;;;;11.77;72.20;99893.47;5040015;27;99849;-84
2022/10/22 05:31:37;;;;;;;9.55;7.68;;;;;;;11.65;72.09;99894.06;5048861;27;97384;-84
2022/10/22 05:34:03;;;;;;;12.05;7.25;;;;;;;11.60;73.06;99897.81;5031776;27;96796;-84
2022/10/22 05:36:29;;;;;;;12.70;8.27;;;;;;;11.61;73.57;99905.63;5030203;27;98498;-84
2022/10/22 05:38:55;;;;;;;12.27;8.27;;;;;;;11.62;73.46;99912.59;4998144;28;101264;-85
2022/10/22 05:41:23;;;;;;;13.00;8.38;;;;;;;11.67;73.34;99926.38;5015442;28;97214;-84
2022/10/22 05:43:49;;;;;;;12.45;8.02;;;;;;;11.71;73.09;99935.00;5048728;27;96930;-84
2022/10/22 05:46:19;;;;;;;13.52;9.45;;;;;;;11.73;73.35;99934.00;5031113;28;102105;-84
2022/10/22 05:48:54;;;;;;;15.20;10.50;;;;;;;11.77;73.42;99943.44;5015014;28;102729;-84
2022/10/22 05:51:21;;;;;;;22.40;12.50;;;;;;;11.83;73.02;99950.22;5015673;28;96827;-84
2022/10/22 05:53:54;;;;;;;16.95;11.80;;;;;;;11.86;73.19;99962.41;5012788;28;97022;-84
2022/10/22 05:56:20;;;;;;;18.55;12.10;;;;;;;11.83;73.24;99944.94;5009439;28;102021;-84
2022/10/22 05:58:45;;;;;;;23.15;12.45;;;;;;;11.91;73.09;99961.28;5027982;28;97805;-85
2022/10/22 06:01:26;;;;;;;17.58;11.18;;;;;;;11.91;73.36;99958.66;5013296;28;96789;-85
2022/10/22 06:03:52;;;;;;;17.42;10.80;;;;;;;11.95;73.27;99948.84;5008310;28;97004;-84
2022/10/22 06:06:27;;;;;;;15.75;10.10;;;;;;;12.02;73.10;99938.91;5022249;28;99233;-86
2022/10/22 06:08:53;;;;;;;16.40;11.82;;;;;;;12.04;72.95;99950.19;5011498;28;101198;-84
2022/10/22 06:11:20;;;;;;;16.08;10.25;;;;;;;12.00;73.25;99929.28;5001408;28;97330;-86
2022/10/22 06:13:46;;;;;;;15.45;10.15;;;;;;;12.04;73.04;99932.63;5013413;28;98270;-87
2022/10/22 06:16:12;;;;;;;13.23;9.48;;;;;;;12.14;73.25;99949.72;5009971;28;99400;-84
2022/10/22 06:18:38;;;;;;;12.68;9.07;;;;;;;12.21;73.44;99952.91;5013996;28;101420;-85
2022/10/22 06:21:08;;;;;;;15.23;9.68;;;;;;;12.26;72.92;99937.75;5020141;28;97634;-85
2022/10/22 06:23:34;;;;;;;15.90;9.73;;;;;;;12.21;73.22;99916.06;5012008;28;97179;-85
2022/10/22 06:26:00;;;;;;;15.27;9.73;;;;;;;12.32;73.38;99932.19;5035111;27;101467;-85
2022/10/22 06:28:26;;;;;;;15.52;10.27;;;;;;;12.25;73.12;99925.53;4995046;28;100181;-85
2022/10/22 06:30:52;;;;;;;15.30;9.93;;;;;;;12.37;73.54;99932.84;4995969;28;97393;-89
2022/10/22 06:33:17;;;;;;;13.63;9.32;;;;;;;12.35;72.85;99932.03;5030966;28;97184;-91
2022/10/22 06:35:44;;;;;;;12.40;9.15;;;;;;;12.43;72.92;99945.69;5030406;28;101722;-87
2022/10/22 06:38:10;;;;;;;16.33;9.75;;;;;;;12.44;72.97;99952.66;5014339;28;101347;-90
2022/10/22 06:40:35;;;;;;;13.27;9.27;;;;;;;12.48;73.25;99942.88;4992589;28;96790;-89
2022/10/22 06:43:01;;;;;;;20.98;11.77;;;;;;;12.46;72.86;99934.19;5055688;27;96885;-90
2022/10/22 06:45:26;;;;;;;17.17;10.93;;;;;;;12.51;72.60;99939.19;4998293;28;100278;-88
2022/10/22 06:47:52;;;;;;;15.98;9.63;;;;;;;12.54;72.76;99945.19;5031851;28;101292;-88
2022/10/22 06:50:18;;;;;;;20.75;12.20;;;;;;;12.55;72.98;99938.16;5014930;28;96858;-90
2022/10/22 06:52:44;;;;;;;56.75;25.20;;;;;;;12.61;73.13;99935.22;5015459;28;96793;-90
2022/10/22 06:55:09;;;;;;;56.70;24.58;;;;;;;12.60;73.44;99941.41;4998253;28;100479;-90
2022/10/22 06:57:35;;;;;;;61.60;26.15;;;;;;;12.58;73.26;99928.31;5014599;28;98073;-89
2022/10/22 07:00:01;;;;;;;25.45;14.95;;;;;;;12.65;73.32;99940.28;4994062;28;97016;-89
2022/10/22 07:02:26;;;;;;;22.58;14.30;;;;;;;12.67;73.40;99942.81;5011984;28;98216;-89
2022/10/22 07:04:52;;;;;;;28.42;15.88;;;;;;;12.65;73.55;99947.28;5012939;28;101762;-89
2022/10/22 07:07:17;;;;;;;21.75;11.95;;;;;;;12.69;73.30;99946.25;5011381;28;101680;-90
2022/10/22 07:09:44;;;;;;;21.25;13.05;;;;;;;12.56;73.40;99931.94;4997686;28;96885;-90
2022/10/22 07:12:11;;;;;;;22.45;13.57;;;;;;;12.69;73.26;99957.63;5018325;28;97134;-89
2022/10/22 07:14:37;;;;;;;24.13;14.35;;;;;;;12.55;73.65;99932.88;5013537;27;98288;-90
2022/10/22 07:17:02;;;;;;;23.83;13.93;;;;;;;12.77;73.37;99952.00;5011103;28;100268;-89
2022/10/22 07:19:28;;;;;;;23.77;13.50;;;;;;;12.68;73.90;99929.59;4997347;28;97989;-89
2022/10/22 07:21:54;;;;;;;28.13;16.73;;;;;;;12.84;73.67;99966.56;5012206;28;96789;-91
2022/10/22 07:24:19;;;;;;;31.27;17.10;;;;;;;12.83;73.97;99966.63;5007472;28;100424;-87
2022/10/22 07:26:45;;;;;;;29.40;15.43;;;;;;;12.80;73.86;99959.75;4996652;28;101577;-89
2022/10/22 07:29:10;;;;;;;32.00;17.90;;;;;;;12.88;74.47;99964.59;5018368;28;97304;-89
2022/10/22 07:31:36;;;;;;;22.77;12.77;;;;;;;12.93;73.72;99975.78;5017421;27;97304;-88
2022/10/22 07:34:01;;;;;;;19.38;11.45;;;;;;;12.91;74.01;99967.97;5007737;28;101791;-89
2022/10/22 07:36:27;;;;;;;21.00;11.98;;;;;;;12.88;74.32;99976.00;5006650;27;99713;-89
2022/10/22 07:38:56;;;;;;;19.45;11.35;;;;;;;12.74;74.66;99959.16;5009728;28;96895;-89
2022/10/22 07:41:22;;;;;;;18.55;12.57;;;;;;;12.79;74.98;99968.56;5012355;28;97357;-92
2022/10/22 07:43:48;;;;;;;17.38;11.35;;;;;;;12.59;75.23;99948.44;5025232;28;97467;-90
2022/10/22 07:46:13;;;;;;;21.48;12.73;;;;;;;12.79;75.43;99984.34;5028605;28;99142;-90
2022/10/22 07:48:39;;;;;;;17.10;11.43;;;;;;;12.85;74.86;99977.94;5029294;28;97378;-89
2022/10/22 07:51:04;;;;;;;22.45;12.52;;;;;;;12.88;74.85;99975.16;5022385;28;97021;-90
2022/10/22 07:53:30;;;;;;;19.65;11.75;;;;;;;12.91;75.09;99981.16;4994876;28;100989;-90
2022/10/22 07:55:56;;;;;;;17.88;12.32;;;;;;;12.85;75.08;99981.41;5029117;28;98042;-89
2022/10/22 07:58:22;;;;;;;20.00;11.50;;;;;;;12.89;75.63;99985.63;5013096;28;96983;-90
2022/10/22 08:00:48;;;;;;;20.95;12.75;;;;;;;12.93;75.47;99988.09;5016270;28;97299;-89
2022/10/22 08:03:15;;;;;;;25.60;13.02;;;;;;;12.96;75.66;99993.22;4994252;28;101135;-90
2022/10/22 08:05:42;;;;;;;25.85;13.75;;;;;;;12.82;75.66;99972.81;5029129;28;98004;-86
2022/10/22 08:08:08;;;;;;;25.40;14.60;;;;;;;12.88;75.97;99990.94;5023831;28;96835;-87
2022/10/22 08:10:34;;;;;;;31.42;17.67;;;;;;;12.89;75.96;99987.41;5012428;28;97031;-83
2022/10/22 08:13:00;;;;;;;30.48;15.63;;;;;;;12.84;76.49;99984.13;5007996;28;101607;-84
2022/10/22 08:15:26;;;;;;;78.93;35.50;;;;;;;12.89;75.73;99985.63;5011824;28;98104;-85
2022/10/22 08:17:52;;;;;;;61.05;29.95;;;;;;;12.84;76.16;99977.09;4994742;28;97446;-85
2022/10/22 08:20:18;;;;;;;57.55;27.80;;;;;;;12.93;75.98;99990.75;5015786;28;97039;-91
2022/10/22 08:22:44;;;;;;;75.13;36.13;;;;;;;12.93;75.95;99985.47;5015078;28;101616;-87
2022/10/22 08:25:10;;;;;;;66.32;31.02;;;;;;;12.91;75.63;99981.16;5016334;28;98239;-87
2022/10/22 08:27:35;;;;;;;43.90;23.83;;;;;;;12.99;75.69;99996.56;5013503;28;96837;-87
2022/10/22 08:30:01;;;;;;;85.75;40.42;;;;;;;12.90;75.68;99983.84;5027561;28;97728;-87
2022/10/22 08:32:27;;;;;;;88.97;38.33;;;;;;;13.00;75.69;99993.00;5023083;27;98476;-87
2022/10/22 08:34:52;;;;;;;125.68;52.00;;;;;;;13.02;75.95;99998.19;4996157;28;98753;-87
2022/10/22 08:37:18;;;;;;;121.28;45.63;;;;;;;13.00;75.85;100000.91;5014061;28;97209;-88
2022/10/22 08:39:44;;;;;;;78.18;33.35;;;;;;;13.03;75.98;100007.78;5014079;28;96981;-87
2022/10/22 08:42:21;;;;;;;37.92;19.80;;;;;;;13.16;75.57;100026.50;5044260;27;100259;-87
2022/10/22 08:44:56;;;;;;;32.45;16.98;;;;;;;13.17;75.60;100030.84;5029632;27;101702;-89
2022/10/22 08:47:44;;;;;;;22.92;13.82;;;;;;;13.19;75.65;100024.56;5045184;27;97444;-89
2022/10/22 08:50:13;;;;;;;31.45;15.63;;;;;;;13.25;75.59;100026.94;5013363;28;97409;-86
2022/10/22 08:52:39;;;;;;;49.72;21.83;;;;;;;13.27;75.48;100029.50;5031744;28;97629;-86
2022/10/22 08:55:12;;;;;;;95.20;37.30;;;;;;;13.36;76.27;100021.97;5012326;28;101010;-86
2022/10/22 08:57:50;;;;;;;42.83;20.88;;;;;;;13.23;75.95;99983.09;4998837;28;96907;-87
2022/10/22 09:00:23;;;;;;;63.90;30.33;;;;;;;13.42;75.56;100012.91;5023707;28;98358;-87
2022/10/22 09:03:04;;;;;;;62.25;29.48;;;;;;;13.23;76.17;99991.00;5028699;28;100255;-90
2022/10/22 09:05:51;;;;;;;63.80;30.83;;;;;;;13.36;76.57;100018.50;5011947;27;101416;-85
2022/10/22 09:08:18;;;;;;;69.25;32.28;;;;;;;13.40;76.13;100013.91;5010478;28;96911;-86
2022/10/22 09:11:05;;;;;;;129.80;49.55;;;;;;;13.42;76.48;100018.19;5030815;27;97014;-87
2022/10/22 09:13:31;;;;;;;45.78;23.33;;;;;;;13.32;76.19;99986.16;5032297;28;99216;-88
2022/10/22 09:16:13;;;;;;;48.67;25.85;;;;;;;13.40;76.51;100014.75;5033976;28;97492;-89
2022/10/22 09:18:54;;;;;;;48.97;27.67;;;;;;;13.41;76.22;100005.06;5021251;28;96709;-86
2022/10/22 09:21:25;;;;;;;30.55;19.23;;;;;;;13.47;76.43;100017.97;4999528;28;98332;-87
2022/10/22 09:23:54;;;;;;;31.10;18.58;;;;;;;13.56;76.77;100028.88;5032396;27;101534;-87
2022/10/22 09:26:20;;;;;;;28.80;15.60;;;;;;;13.54;76.87;100030.72;5031362;28;98423;-86
2022/10/22 09:28:49;;;;;;;24.40;16.42;;;;;;;13.59;76.85;100041.91;5015650;27;96754;-87
2022/10/22 09:31:15;;;;;;;22.00;14.77;;;;;;;13.61;76.68;100033.06;5013281;28;97222;-87
2022/10/22 09:33:44;;;;;;;19.42;13.18;;;;;;;13.57;76.74;100024.44;4999261;28;101613;-86
2022/10/22 09:36:16;;;;;;;17.75;12.05;;;;;;;13.56;76.98;100009.56;5032271;27;100170;-87
2022/10/22 09:38:51;;;;;;;17.17;11.45;;;;;;;13.64;77.12;100017.06;5017351;28;96641;-89
2022/10/22 09:41:25;;;;;;;32.03;18.13;;;;;;;13.77;77.38;100034.84;4996822;28;97138;-82
2022/10/22 09:43:51;;;;;;;73.57;34.45;;;;;;;13.73;76.80;100022.75;5015030;28;102741;-81
2022/10/22 09:46:20;;;;;;;75.05;36.83;;;;;;;13.84;77.40;100034.50;5033202;27;97565;-79
2022/10/22 09:49:03;;;;;;;64.65;35.08;;;;;;;13.85;77.74;100034.44;4997394;28;98160;-81
2022/10/22 09:51:40;;;;;;;48.33;27.27;;;;;;;13.79;77.98;100025.06;5013888;28;96977;-81
2022/10/22 09:54:17;;;;;;;26.80;14.95;;;;;;;13.88;77.52;100034.28;5026454;27;97498;-78
2022/10/22 09:56:47;;;;;;;23.40;14.25;;;;;;;13.91;77.41;100031.47;5021598;28;98907;-79
2022/10/22 09:59:17;;;;;;;28.75;14.52;;;;;;;13.87;77.28;100018.53;5011443;27;97222;-79
2022/10/22 10:01:43;;;;;;;21.77;13.45;;;;;;;13.82;77.02;100008.22;5058031;27;97144;-78
2022/10/22 10:04:12;;;;;;;21.75;14.57;;;;;;;13.98;76.34;100027.56;5034445;27;98277;-79
2022/10/22 10:06:40;;;;;;;23.40;12.85;;;;;;;13.92;76.35;100019.13;5017995;27;98506;-79
2022/10/22 10:09:18;;;;;;;18.23;12.98;;;;;;;14.07;76.32;100038.59;5054023;27;96723;-79
2022/10/22 10:12:11;;;;;;;24.70;13.10;;;;;;;14.06;75.81;100036.88;5050782;27;96980;-79
2022/10/22 10:14:49;;;;;;;20.02;12.55;;;;;;;14.02;75.93;100038.81;5050176;27;97462;-79
2022/10/22 10:17:30;;;;;;;18.65;12.98;;;;;;;14.07;75.83;100042.06;5032604;27;101396;-79
2022/10/22 10:20:16;;;;;;;19.83;13.37;;;;;;;14.01;76.14;100026.56;5045604;27;96831;-78
2022/10/22 10:23:17;;;;;;;20.17;12.52;;;;;;;14.03;75.54;100028.19;5017508;27;98238;-78
2022/10/22 10:26:02;;;;;;;23.30;12.43;;;;;;;13.87;75.94;99992.97;5005587;28;98721;-77
2022/10/22 10:28:47;;;;;;;18.60;11.93;;;;;;;13.98;75.52;100006.47;5043628;27;97866;-79
2022/10/22 10:31:31;;;;;;;18.63;12.57;;;;;;;13.89;75.93;99993.75;5038349;27;97270;-78
2022/10/22 10:34:38;;;;;;;21.38;11.43;;;;;;;14.13;75.60;100033.81;5050208;27;97329;-77
2022/10/22 10:37:13;;;;;;;20.10;11.32;;;;;;;14.12;75.78;100040.06;5014199;27;98606;-78
2022/10/22 10:40:04;;;;;;;20.67;12.13;;;;;;;14.12;75.67;100036.56;5046988;27;101472;-80
2022/10/22 10:42:40;;;;;;;18.38;11.38;;;;;;;14.08;75.91;100040.28;5031163;27;96834;-79
2022/10/22 10:45:21;;;;;;;23.10;12.13;;;;;;;14.15;76.13;100039.88;5028130;27;96947;-79
2022/10/22 10:48:11;;;;;;;27.20;14.30;;;;;;;14.14;76.89;100032.06;5015532;27;101353;-78
2022/10/22 10:50:53;;;;;;;22.48;13.90;;;;;;;14.14;77.58;100037.34;5030393;27;102247;-78
2022/10/22 10:53:34;;;;;;;24.73;12.85;;;;;;;14.19;77.80;100049.34;5013720;27;97280;-79
2022/10/22 10:56:18;;;;;;;24.83;13.77;;;;;;;14.23;77.85;100050.91;5048403;27;97073;-79
2022/10/22 10:59:09;;;;;;;22.38;13.05;;;;;;;14.21;77.88;100047.47;5045722;27;101168;-80
2022/10/22 11:01:59;;;;;;;27.92;13.35;;;;;;;14.29;78.58;100041.78;5010525;27;101653;-79
2022/10/22 11:04:42;;;;;;;23.00;13.50;;;;;;;14.37;78.23;100051.91;4995870;27;96920;-79
2022/10/22 11:07:13;;;;;;;23.85;13.38;;;;;;;14.40;78.38;100043.88;5028222;27;98219;-81
2022/10/22 11:09:45;;;;;;;20.10;11.60;;;;;;;14.45;78.57;100036.53;5028474;27;101487;-80
2022/10/22 11:12:35;;;;;;;29.25;13.73;;;;;;;14.52;78.90;100040.59;5025350;27;101814;-79
2022/10/22 11:15:23;;;;;;;27.88;13.65;;;;;;;14.53;79.16;100025.59;5002914;27;97428;-79
2022/10/22 11:17:51;;;;;;;22.88;13.88;;;;;;;14.62;79.13;100025.06;5029510;27;96975;-85
2022/10/22 11:20:40;;;;;;;30.85;19.15;;;;;;;14.67;79.47;100017.75;5025902;27;98107;-87
2022/10/22 11:23:10;;;;;;;29.90;16.35;;;;;;;14.69;79.43;100029.94;5014611;27;98444;-83
2022/10/22 11:25:45;;;;;;;26.42;13.50;;;;;;;14.76;79.43;100019.03;5001187;27;97378;-88
2022/10/22 11:28:16;;;;;;;25.58;12.80;;;;;;;14.68;79.62;99999.16;5012424;27;97244;-89